Time;durP1;ratioP1;P1;durP2;ratioP2;P2;SDS_P1;SDS_P2;PMS_P1;PMS_P2;Temp;Humidity;BMP_temperature;BMP_pressure;BME280_temperature;BME280_humidity;BME280_pressure;Samples;Min_cycle;Max_cycle;Signal;HPM_P1;HPM_P2
2023/02/07 00:01:53;;;;;;;35.80;23.50;;;-0.70;99.90;;;;;;5087157;28;20111;-57
2023/02/07 00:04:39;;;;;;;40.60;25.27;;;-0.70;99.90;;;;;;5091373;28;20028;-55
2023/02/07 00:07:25;;;;;;;42.95;24.98;;;-0.70;99.90;;;;;;5084214;28;20039;-56
2023/02/07 00:10:14;;;;;;;40.72;25.05;;;-0.80;99.90;;;;;;5071906;28;20032;-57
2023/02/07 00:13:00;;;;;;;44.00;24.85;;;-0.90;99.90;;;;;;5069223;28;20032;-54
2023/02/07 00:15:49;;;;;;;40.50;24.08;;;-1.00;99.90;;;;;;5076675;28;20100;-55
2023/02/07 00:18:35;;;;;;;38.60;23.42;;;-1.00;99.90;;;;;;5077848;28;20028;-57
2023/02/07 00:21:23;;;;;;;38.85;24.92;;;-1.00;99.90;;;;;;5091737;28;20555;-58
2023/02/07 00:24:09;;;;;;;39.30;24.77;;;-1.00;99.90;;;;;;5071365;28;20016;-58
2023/02/07 00:26:55;;;;;;;44.53;25.88;;;-1.00;99.90;;;;;;5088002;28;20070;-57
2023/02/07 00:29:41;;;;;;;34.67;22.58;;;-1.00;99.90;;;;;;5091337;28;20050;-51
2023/02/07 00:32:31;;;;;;;42.47;24.10;;;-0.90;99.90;;;;;;5072496;28;20028;-56
2023/02/07 00:35:17;;;;;;;38.90;24.15;;;-0.90;99.90;;;;;;5072221;28;20024;-57
2023/02/07 00:38:03;;;;;;;37.78;24.27;;;-0.90;99.90;;;;;;5091019;28;20043;-58
2023/02/07 00:40:49;;;;;;;36.10;23.70;;;-1.00;99.90;;;;;;5085209;28;20024;-57
2023/02/07 00:43:35;;;;;;;36.35;24.27;;;-0.90;99.90;;;;;;5056680;28;20493;-55
2023/02/07 00:46:21;;;;;;;38.05;22.73;;;-0.90;99.90;;;;;;5080461;28;20032;-57
2023/02/07 00:49:07;;;;;;;37.72;23.70;;;-0.90;99.90;;;;;;5090882;28;20032;-55
2023/02/07 00:51:53;;;;;;;37.20;23.67;;;-1.00;99.90;;;;;;5077160;28;20036;-56
2023/02/07 00:54:39;;;;;;;37.72;24.15;;;-1.00;99.90;;;;;;5072488;28;20107;-58
2023/02/07 00:57:25;;;;;;;37.35;24.13;;;-1.00;99.90;;;;;;5072801;28;20635;-54
2023/02/07 01:00:11;;;;;;;41.80;25.20;;;-1.00;99.90;;;;;;5072011;28;20052;-56
2023/02/07 01:02:57;;;;;;;37.63;24.42;;;-1.10;99.90;;;;;;5071904;28;20609;-54
2023/02/07 01:05:44;;;;;;;40.08;25.67;;;-1.10;99.90;;;;;;5074060;28;20028;-58
2023/02/07 01:08:30;;;;;;;38.08;24.23;;;-1.00;99.90;;;;;;5090468;28;20042;-58
2023/02/07 01:11:17;;;;;;;35.55;24.05;;;-1.00;99.90;;;;;;5083996;28;20031;-59
2023/02/07 01:14:03;;;;;;;33.95;22.20;;;-1.10;99.90;;;;;;5071076;28;20024;-55
2023/02/07 01:16:49;;;;;;;37.00;24.10;;;-1.00;99.90;;;;;;5081027;28;20032;-56
2023/02/07 01:19:35;;;;;;;42.22;24.98;;;-1.10;99.90;;;;;;5090647;28;20035;-58
2023/02/07 01:22:21;;;;;;;37.38;23.38;;;-1.10;99.90;;;;;;5076265;28;20033;-57
2023/02/07 01:25:07;;;;;;;38.95;24.02;;;-1.00;99.90;;;;;;5083956;28;20038;-56
2023/02/07 01:27:53;;;;;;;36.28;25.05;;;-1.10;99.90;;;;;;5090201;28;20525;-59
2023/02/07 01:30:40;;;;;;;39.53;24.60;;;-1.10;99.90;;;;;;5090596;28;20422;-57
2023/02/07 01:33:26;;;;;;;39.33;23.88;;;-1.10;99.90;;;;;;5090568;28;20093;-55
2023/02/07 01:36:14;;;;;;;34.08;22.45;;;-1.10;99.90;;;;;;5069947;28;20527;-53
2023/02/07 01:39:02;;;;;;;38.25;24.63;;;-1.10;99.90;;;;;;5071420;28;20075;-54
2023/02/07 01:41:48;;;;;;;37.03;22.95;;;-1.10;99.90;;;;;;5075678;28;20028;-55
2023/02/07 01:44:34;;;;;;;38.78;23.33;;;-1.10;99.90;;;;;;5084675;28;20066;-56
2023/02/07 01:47:22;;;;;;;39.40;24.65;;;-1.10;99.90;;;;;;5070811;28;20033;-57
2023/02/07 01:50:08;;;;;;;36.13;24.75;;;-1.10;99.90;;;;;;5071748;28;20078;-57
2023/02/07 01:52:57;;;;;;;36.72;23.75;;;-1.20;99.90;;;;;;5070220;28;20472;-54
2023/02/07 01:55:46;;;;;;;36.67;22.35;;;-1.20;99.90;;;;;;5070105;28;20036;-56
2023/02/07 01:58:33;;;;;;;36.88;23.30;;;-1.20;99.90;;;;;;5089786;28;20525;-56
2023/02/07 02:01:23;;;;;;;34.53;22.30;;;-1.20;99.90;;;;;;5055170;28;20051;-58
2023/02/07 02:04:10;;;;;;;36.03;22.02;;;-1.30;99.90;;;;;;5055484;28;20028;-59
2023/02/07 02:06:56;;;;;;;38.75;23.90;;;-1.30;99.90;;;;;;5089114;28;20028;-59
2023/02/07 02:09:42;;;;;;;36.80;23.67;;;-1.40;99.90;;;;;;5085032;28;20021;-60
2023/02/07 02:12:54;;;;;;;38.38;22.83;;;-1.40;99.90;;;;;;5070608;28;20377;-58
2023/02/07 02:15:55;;;;;;;40.20;23.13;;;-1.30;99.90;;;;;;5081685;28;20077;-58
2023/02/07 02:19:13;;;;;;;38.60;22.35;;;-1.40;99.90;;;;;;5075848;28;20039;-59
2023/02/07 02:22:23;;;;;;;38.75;23.73;;;-1.30;99.90;;;;;;5070494;28;20069;-59
2023/02/07 02:25:41;;;;;;;38.75;23.35;;;-1.30;99.90;;;;;;5072914;28;20032;-60
2023/02/07 02:29:01;;;;;;;34.55;22.40;;;-1.30;99.90;;;;;;5089276;28;20024;-56
2023/02/07 02:31:50;;;;;;;38.47;22.58;;;-1.30;99.90;;;;;;5068884;28;20025;-58
2023/02/07 02:34:54;;;;;;;35.72;22.10;;;-1.40;99.90;;;;;;5076506;28;20500;-58
2023/02/07 02:37:52;;;;;;;40.65;24.25;;;-1.40;99.90;;;;;;5088922;28;20024;-58
2023/02/07 02:40:56;;;;;;;36.67;23.15;;;-1.50;99.90;;;;;;5075409;28;20033;-58
2023/02/07 02:44:06;;;;;;;34.75;21.90;;;-1.40;99.90;;;;;;5070225;28;20032;-57
2023/02/07 02:46:54;;;;;;;33.15;21.05;;;-1.40;99.90;;;;;;5067739;28;20111;-58
2023/02/07 02:49:41;;;;;;;32.47;20.88;;;-1.50;99.90;;;;;;5073395;28;20438;-58
2023/02/07 02:52:28;;;;;;;35.35;22.80;;;-1.50;99.90;;;;;;5089605;28;20055;-57
2023/02/07 02:55:14;;;;;;;34.30;21.60;;;-1.60;99.90;;;;;;5078973;28;20025;-59
2023/02/07 02:58:22;;;;;;;33.65;21.83;;;-1.60;99.90;;;;;;5068850;28;20443;-57
2023/02/07 03:01:40;;;;;;;33.83;22.15;;;-1.60;99.90;;;;;;5085729;28;20020;-58
2023/02/07 03:04:41;;;;;;;37.60;22.55;;;-1.50;99.90;;;;;;5086845;28;20027;-57
2023/02/07 03:07:37;;;;;;;34.17;20.17;;;-1.50;99.90;;;;;;5069758;28;20025;-58
2023/02/07 03:10:48;;;;;;;35.03;21.23;;;-1.50;99.90;;;;;;5056511;28;20032;-58
2023/02/07 03:13:58;;;;;;;38.83;23.00;;;-1.50;99.90;;;;;;5074673;28;20023;-58
2023/02/07 03:17:14;;;;;;;40.78;24.17;;;-1.60;99.90;;;;;;5092232;28;20032;-59
2023/02/07 03:20:05;;;;;;;;;;;-1.60;99.90;;;;;;5080902;28;20029;-57
2023/02/07 03:22:52;;;;;;;35.60;21.23;;;-1.60;99.90;;;;;;5073814;28;20265;-57
2023/02/07 03:25:40;;;;;;;36.40;22.45;;;-1.60;99.90;;;;;;5089741;28;20024;-59
2023/02/07 03:28:28;;;;;;;37.72;21.73;;;-1.60;99.90;;;;;;5093340;28;20486;-58
2023/02/07 03:31:17;;;;;;;38.58;21.90;;;-1.80;99.90;;;;;;5072783;28;20041;-59
2023/02/07 03:34:15;;;;;;;37.97;21.30;;;-2.00;99.90;;;;;;5061540;28;20032;-59
2023/02/07 03:37:11;;;;;;;39.40;24.02;;;-2.10;99.90;;;;;;5091885;28;20072;-57
2023/02/07 03:39:57;;;;;;;41.08;22.20;;;-2.10;99.90;;;;;;5073601;28;20029;-57
2023/02/07 03:42:52;;;;;;;39.47;24.30;;;-2.10;99.90;;;;;;5074142;28;20023;-57
2023/02/07 03:45:38;;;;;;;40.70;23.73;;;-2.10;99.90;;;;;;5093398;28;20652;-57
2023/02/07 03:48:24;;;;;;;40.85;23.92;;;-2.10;99.90;;;;;;5085986;28;20033;-56
2023/02/07 03:51:10;;;;;;;42.15;24.80;;;-2.20;99.90;;;;;;5058290;28;20119;-58
2023/02/07 03:53:56;;;;;;;38.47;23.48;;;-2.10;99.90;;;;;;5083463;28;20037;-59
2023/02/07 03:56:42;;;;;;;47.70;28.30;;;-2.20;99.90;;;;;;5091617;28;20020;-58
2023/02/07 03:59:28;;;;;;;45.53;26.30;;;-2.10;99.90;;;;;;5072562;28;20396;-58
2023/02/07 04:02:14;;;;;;;47.28;26.42;;;-2.10;99.90;;;;;;5075482;28;20085;-57
2023/02/07 04:05:00;;;;;;;44.03;25.13;;;-2.20;99.90;;;;;;5091818;28;20520;-55
2023/02/07 04:07:46;;;;;;;41.38;23.60;;;-2.20;99.90;;;;;;5072023;28;20029;-58
2023/02/07 04:10:32;;;;;;;57.72;31.95;;;-2.10;99.90;;;;;;5089073;28;20036;-56
2023/02/07 04:13:18;;;;;;;42.30;24.80;;;-2.10;99.90;;;;;;5092099;28;20024;-56
2023/02/07 04:16:05;;;;;;;45.72;25.13;;;-2.10;99.90;;;;;;5072179;28;20029;-52
2023/02/07 04:18:51;;;;;;;54.10;26.42;;;-2.10;99.90;;;;;;5073386;28;20028;-59
2023/02/07 04:21:37;;;;;;;47.85;23.83;;;-2.10;99.90;;;;;;5092606;28;20024;-60
2023/02/07 04:24:23;;;;;;;45.22;24.55;;;-2.20;99.90;;;;;;5085840;28;20036;-57
2023/02/07 04:27:09;;;;;;;49.83;26.60;;;-2.30;99.90;;;;;;5056311;28;20012;-59
2023/02/07 04:30:03;;;;;;;64.82;26.95;;;-2.20;99.90;;;;;;5068335;28;20085;-55
2023/02/07 04:32:48;;;;;;;66.25;28.05;;;-2.20;99.90;;;;;;5093129;28;20034;-55
2023/02/07 04:35:34;;;;;;;60.10;26.70;;;-2.30;99.90;;;;;;5073188;28;20510;-57
2023/02/07 04:38:20;;;;;;;44.47;24.33;;;-2.70;99.90;;;;;;5091336;28;20032;-56
2023/02/07 04:41:07;;;;;;;70.95;28.48;;;-2.80;99.90;;;;;;5072208;28;20074;-55
2023/02/07 04:43:53;;;;;;;59.90;25.33;;;-2.70;99.90;;;;;;5061639;28;20101;-58
2023/02/07 04:46:39;;;;;;;52.33;26.08;;;-2.70;99.90;;;;;;5094220;28;20121;-57
2023/02/07 04:49:25;;;;;;;63.28;26.70;;;-2.60;99.90;;;;;;5085229;28;20124;-58
2023/02/07 04:52:11;;;;;;;53.85;24.80;;;-2.70;99.90;;;;;;5073846;28;20042;-59
2023/02/07 04:54:57;;;;;;;54.65;27.27;;;-2.80;99.90;;;;;;5085278;28;20032;-58
2023/02/07 04:57:43;;;;;;;57.95;27.25;;;-2.80;99.90;;;;;;5055567;28;20488;-58
2023/02/07 05:00:28;;;;;;;66.93;26.90;;;-2.70;99.90;;;;;;5087127;28;20047;-59
2023/02/07 05:03:15;;;;;;;54.97;28.83;;;-2.70;99.90;;;;;;5103861;28;20028;-57
2023/02/07 05:06:00;;;;;;;85.78;27.10;;;-2.70;99.90;;;;;;5106415;28;20020;-63
2023/02/07 05:08:49;;;;;;;51.47;27.13;;;-2.80;99.90;;;;;;5089029;28;20067;-59
2023/02/07 05:11:35;;;;;;;52.08;27.73;;;-2.80;99.90;;;;;;5078170;28;20063;-60
2023/02/07 05:14:21;;;;;;;68.70;27.42;;;-2.80;99.90;;;;;;5093879;28;20038;-57
2023/02/07 05:17:07;;;;;;;57.42;29.85;;;-2.70;99.90;;;;;;5098592;28;20028;-59
2023/02/07 05:19:56;;;;;;;60.92;31.17;;;-2.60;99.90;;;;;;5061350;28;20063;-59
2023/02/07 05:22:44;;;;;;;81.85;29.00;;;-2.50;99.90;;;;;;5084313;28;20031;-57
2023/02/07 05:25:30;;;;;;;84.10;30.38;;;-2.50;99.90;;;;;;5091752;28;20028;-54
2023/02/07 05:28:16;;;;;;;66.57;28.27;;;-2.60;99.90;;;;;;5057387;28;20025;-57
2023/02/07 05:31:02;;;;;;;121.78;31.83;;;-2.70;99.90;;;;;;5071021;28;20449;-57
2023/02/07 05:33:48;;;;;;;71.22;30.90;;;-2.70;99.90;;;;;;5071569;28;20074;-60
2023/02/07 05:36:34;;;;;;;134.63;32.45;;;-2.80;99.90;;;;;;5055903;28;20025;-57
2023/02/07 05:39:20;;;;;;;78.55;30.25;;;-2.90;99.90;;;;;;5071032;28;20462;-56
2023/02/07 05:42:06;;;;;;;87.38;31.38;;;-2.90;99.90;;;;;;5060097;28;20022;-58
2023/02/07 05:44:53;;;;;;;75.90;32.38;;;-2.80;99.90;;;;;;5090130;28;20062;-58
2023/02/07 05:47:39;;;;;;;69.20;33.47;;;-2.90;99.90;;;;;;5073628;28;20454;-58
2023/02/07 05:50:25;;;;;;;75.80;33.45;;;-2.70;99.90;;;;;;5090265;28;20028;-58
2023/02/07 05:53:11;;;;;;;85.13;33.17;;;-2.70;99.90;;;;;;5075875;28;20385;-58
2023/02/07 05:55:57;;;;;;;72.07;30.85;;;-2.70;99.90;;;;;;5070479;28;20027;-55
2023/02/07 05:58:43;;;;;;;79.18;33.47;;;-2.80;99.90;;;;;;5089190;28;20072;-57
2023/02/07 06:01:29;;;;;;;78.30;32.58;;;-2.80;99.90;;;;;;5073308;28;20036;-59
2023/02/07 06:04:15;;;;;;;97.20;37.30;;;-2.80;99.90;;;;;;5089804;28;20085;-58
2023/02/07 06:07:01;;;;;;;78.28;32.75;;;-2.80;99.90;;;;;;5070582;28;20029;-58
2023/02/07 06:09:47;;;;;;;84.50;34.00;;;-2.70;99.90;;;;;;5056235;28;20362;-58
2023/02/07 06:12:33;;;;;;;98.63;41.78;;;-2.60;99.90;;;;;;5070607;28;20029;-58
2023/02/07 06:15:19;;;;;;;94.05;40.78;;;-2.60;99.90;;;;;;5073629;28;20020;-60
2023/02/07 06:18:05;;;;;;;81.90;35.88;;;-2.40;99.90;;;;;;5093644;28;20186;-61
2023/02/07 06:20:51;;;;;;;86.00;36.00;;;-2.30;99.90;;;;;;5073623;28;20041;-61
2023/02/07 06:23:37;;;;;;;92.88;36.67;;;-2.30;99.90;;;;;;5076648;28;20052;-60
2023/02/07 06:26:23;;;;;;;77.78;34.83;;;-2.20;99.90;;;;;;5080603;28;20055;-60
2023/02/07 06:29:09;;;;;;;88.63;35.40;;;-2.20;99.90;;;;;;5062001;28;20033;-60
2023/02/07 06:31:55;;;;;;;80.10;34.15;;;-2.20;99.90;;;;;;5091402;28;20085;-59
2023/02/07 06:34:41;;;;;;;76.13;32.60;;;-2.40;99.90;;;;;;5079844;28;20111;-59
2023/02/07 06:37:30;;;;;;;90.93;35.33;;;-2.50;99.90;;;;;;5059836;28;20408;-59
2023/02/07 06:40:16;;;;;;;82.03;34.45;;;-2.60;99.90;;;;;;5076328;28;20032;-60
2023/02/07 06:43:02;;;;;;;87.10;36.38;;;-2.60;99.90;;;;;;5081580;28;20418;-60
2023/02/07 06:45:48;;;;;;;91.90;36.80;;;-2.60;99.90;;;;;;5076381;28;20024;-60
2023/02/07 06:48:34;;;;;;;82.28;33.65;;;-2.70;99.90;;;;;;5066110;28;20032;-59
2023/02/07 06:51:20;;;;;;;98.55;42.50;;;-2.80;99.90;;;;;;5087388;28;20065;-59
2023/02/07 06:54:08;;;;;;;78.22;36.50;;;-2.70;99.90;;;;;;5092854;28;20029;-60
2023/02/07 06:56:54;;;;;;;82.95;36.15;;;-2.60;99.90;;;;;;5049649;28;20032;-60
2023/02/07 06:59:40;;;;;;;87.93;36.83;;;-2.50;99.90;;;;;;5089089;28;20060;-58
2023/02/07 07:02:26;;;;;;;81.93;35.78;;;-2.40;99.90;;;;;;5096014;28;20025;-62
2023/02/07 07:05:12;;;;;;;84.53;36.70;;;-2.50;99.90;;;;;;5065663;28;20025;-60
2023/02/07 07:07:58;;;;;;;107.22;38.40;;;-2.40;99.90;;;;;;5060138;28;20614;-60
2023/02/07 07:10:44;;;;;;;85.43;38.15;;;-2.40;99.90;;;;;;5093809;28;20086;-61
2023/02/07 07:13:30;;;;;;;92.88;37.75;;;-2.30;99.90;;;;;;5080870;28;20036;-60
2023/02/07 07:16:16;;;;;;;93.30;40.17;;;-2.20;99.90;;;;;;5075127;28;20134;-60
2023/02/07 07:19:02;;;;;;;88.90;39.50;;;-2.10;99.90;;;;;;5075520;28;20395;-58
2023/02/07 07:21:48;;;;;;;84.22;35.72;;;-2.10;99.90;;;;;;5075090;28;20025;-60
2023/02/07 07:24:34;;;;;;;91.80;36.78;;;-2.10;99.90;;;;;;5067306;28;20027;-57
2023/02/07 07:27:19;;;;;;;85.45;35.58;;;-2.20;99.90;;;;;;5094356;28;20055;-60
2023/02/07 07:30:08;;;;;;;89.90;37.20;;;-2.30;99.90;;;;;;5082649;28;20021;-58
2023/02/07 07:32:54;;;;;;;94.65;37.78;;;-2.30;99.90;;;;;;5094516;28;20066;-60
2023/02/07 07:35:40;;;;;;;82.65;34.70;;;-2.40;99.90;;;;;;5080118;28;20089;-57
2023/02/07 07:38:26;;;;;;;87.28;37.60;;;-2.30;99.90;;;;;;5094879;28;20405;-60
2023/02/07 07:41:13;;;;;;;92.05;38.72;;;-2.20;99.90;;;;;;5061329;28;20029;-60
2023/02/07 07:43:58;;;;;;;99.10;41.25;;;-2.10;99.90;;;;;;5076064;28;20111;-59
2023/02/07 07:46:45;;;;;;;82.38;34.90;;;-2.10;99.90;;;;;;5079505;28;20024;-59
2023/02/07 07:49:31;;;;;;;83.10;38.33;;;-2.20;99.90;;;;;;5061944;28;20562;-59
2023/02/07 07:52:16;;;;;;;82.20;36.83;;;-2.20;99.90;;;;;;5078510;28;20039;-60
2023/02/07 07:55:03;;;;;;;88.88;37.47;;;-2.10;99.90;;;;;;5094747;28;20038;-59
2023/02/07 07:57:48;;;;;;;89.68;40.88;;;-2.00;99.90;;;;;;5058144;28;20504;-60
2023/02/07 08:00:34;;;;;;;84.95;37.70;;;-1.90;99.90;;;;;;5079547;28;20112;-61
2023/02/07 08:03:21;;;;;;;83.63;34.80;;;-2.00;99.90;;;;;;5078758;28;20028;-59
2023/02/07 08:06:07;;;;;;;72.50;33.28;;;-2.10;99.90;;;;;;5081664;28;20081;-60
2023/02/07 08:08:53;;;;;;;78.70;36.50;;;-2.00;99.90;;;;;;5093962;28;20027;-56
2023/02/07 08:11:39;;;;;;;71.82;35.38;;;-1.90;99.90;;;;;;5081420;28;20032;-60
2023/02/07 08:14:24;;;;;;;81.75;37.90;;;-1.80;99.90;;;;;;5066402;28;20110;-59
2023/02/07 08:17:10;;;;;;;80.82;38.20;;;-1.60;99.90;;;;;;5091641;28;20036;-59
2023/02/07 08:19:56;;;;;;;80.25;37.92;;;-1.50;99.90;;;;;;5093338;28;20078;-59
2023/02/07 08:22:42;;;;;;;84.15;38.97;;;-1.40;99.90;;;;;;5079826;28;20029;-60
2023/02/07 08:25:28;;;;;;;77.55;37.80;;;-1.30;99.90;;;;;;5091062;28;20511;-61
2023/02/07 08:28:15;;;;;;;92.78;43.80;;;-1.20;99.90;;;;;;5091854;28;20064;-61
2023/02/07 08:31:04;;;;;;;77.00;36.65;;;-1.10;99.90;;;;;;5096135;28;20032;-61
2023/02/07 08:33:50;;;;;;;85.28;39.28;;;-1.20;99.90;;;;;;5078330;28;20617;-60
2023/02/07 08:36:38;;;;;;;80.00;37.47;;;-1.20;99.90;;;;;;5077936;28;20042;-60
2023/02/07 08:39:24;;;;;;;82.63;37.58;;;-1.20;99.90;;;;;;5074444;28;20024;-59
2023/02/07 08:42:10;;;;;;;87.47;41.08;;;-1.20;99.90;;;;;;5077520;28;20111;-59
2023/02/07 08:44:56;;;;;;;77.55;37.13;;;-1.20;99.90;;;;;;5090553;28;20027;-57
2023/02/07 08:47:45;;;;;;;77.93;36.67;;;-1.20;99.90;;;;;;5089544;28;20031;-56
2023/02/07 08:50:31;;;;;;;71.13;36.05;;;-1.30;99.90;;;;;;5091168;28;20541;-57
2023/02/07 08:53:17;;;;;;;72.70;36.83;;;-1.30;99.90;;;;;;5059542;28;20039;-55
2023/02/07 08:56:04;;;;;;;76.45;34.97;;;-1.40;99.90;;;;;;5090140;28;20079;-59
2023/02/07 08:58:49;;;;;;;75.95;35.80;;;-1.40;99.90;;;;;;5044242;28;20066;-58
2023/02/07 09:01:35;;;;;;;72.45;34.80;;;-1.30;99.90;;;;;;5086466;28;20046;-59
2023/02/07 09:04:21;;;;;;;71.95;36.78;;;-1.20;99.90;;;;;;5073006;28;20024;-59
2023/02/07 09:07:09;;;;;;;72.97;35.35;;;-1.20;99.90;;;;;;5071664;28;20021;-59
2023/02/07 09:09:55;;;;;;;70.80;34.08;;;-1.30;99.90;;;;;;5074487;28;20111;-62
2023/02/07 09:12:41;;;;;;;76.55;36.53;;;-1.30;99.90;;;;;;5074562;28;20635;-59
2023/02/07 09:15:27;;;;;;;75.65;39.05;;;-1.30;99.90;;;;;;5090260;28;20661;-59
2023/02/07 09:18:12;;;;;;;69.95;35.67;;;-1.20;99.90;;;;;;5089841;28;20035;-61
2023/02/07 09:20:58;;;;;;;74.82;36.05;;;-1.30;99.90;;;;;;5057402;28;20037;-59
2023/02/07 09:23:44;;;;;;;76.90;37.72;;;-1.30;99.90;;;;;;5079654;28;20542;-58
2023/02/07 09:26:33;;;;;;;79.80;38.83;;;-1.30;99.90;;;;;;5078614;28;20032;-60
2023/02/07 09:29:20;;;;;;;85.63;41.97;;;-1.30;99.90;;;;;;5064825;28;20024;-57
2023/02/07 09:32:06;;;;;;;90.45;41.20;;;-1.30;99.90;;;;;;5076118;28;20070;-57
2023/02/07 09:34:53;;;;;;;98.35;44.72;;;-1.20;99.90;;;;;;5077640;28;20032;-60
2023/02/07 09:37:39;;;;;;;94.40;44.22;;;-1.20;99.90;;;;;;5063940;28;20036;-59
2023/02/07 09:40:25;;;;;;;103.05;46.78;;;-1.00;99.90;;;;;;5080027;28;20065;-58
2023/02/07 09:43:11;;;;;;;99.30;45.20;;;-1.00;99.90;;;;;;5069440;28;20357;-60
2023/02/07 09:46:02;;;;;;;102.55;45.17;;;-1.20;99.90;;;;;;5080171;28;20017;-60
2023/02/07 09:48:59;;;;;;;104.80;47.03;;;-1.20;99.90;;;;;;5086376;28;20108;-57
2023/02/07 09:51:45;;;;;;;102.03;45.83;;;-1.00;99.90;;;;;;5082443;28;20135;-60
2023/02/07 09:54:40;;;;;;;99.72;46.78;;;-1.00;99.90;;;;;;5073810;28;20033;-59
2023/02/07 09:57:36;;;;;;;97.47;46.33;;;-0.90;99.90;;;;;;5071054;28;20028;-58
2023/02/07 10:00:29;;;;;;;103.20;47.88;;;-0.90;99.90;;;;;;5072380;28;20036;-60
2023/02/07 10:03:19;;;;;;;106.13;48.67;;;-0.90;99.90;;;;;;5089061;28;20028;-58
2023/02/07 10:06:17;;;;;;;103.80;48.00;;;-0.80;99.90;;;;;;5084164;28;20540;-57
2023/02/07 10:09:09;;;;;;;119.70;54.08;;;-0.60;99.90;;;;;;5090092;28;20032;-57
2023/02/07 10:12:16;;;;;;;104.80;46.72;;;-0.60;99.90;;;;;;5080808;28;20043;-58
2023/02/07 10:15:29;;;;;;;93.50;43.28;;;-0.70;99.90;;;;;;5055667;28;20568;-60
2023/02/07 10:18:28;;;;;;;94.07;45.88;;;-0.70;99.90;;;;;;5068615;28;20033;-59
2023/02/07 10:22:00;;;;;;;88.65;41.25;;;-0.70;99.90;;;;;;5068731;28;20071;-60
2023/02/07 10:25:08;;;;;;;91.50;41.38;;;-0.90;99.90;;;;;;5033888;28;20032;-61
2023/02/07 10:27:59;;;;;;;87.85;40.97;;;-1.20;99.90;;;;;;5085562;28;20071;-58
2023/02/07 10:30:50;;;;;;;89.97;41.17;;;-1.20;99.90;;;;;;5088359;28;20492;-58
2023/02/07 10:33:40;;;;;;;84.45;39.85;;;-1.40;99.90;;;;;;5061967;28;20057;-65
2023/02/07 10:36:29;;;;;;;80.30;37.20;;;-1.40;99.90;;;;;;5054247;28;20115;-57
2023/02/07 10:39:58;;;;;;;71.72;35.80;;;-1.50;99.90;;;;;;5088404;28;20029;-62
2023/02/07 10:42:49;;;;;;;76.82;36.70;;;-1.50;99.90;;;;;;5062533;28;20047;-58
2023/02/07 10:45:36;;;;;;;83.40;38.20;;;-1.30;99.90;;;;;;5061080;28;20033;-59
2023/02/07 10:48:26;;;;;;;88.88;39.88;;;-1.00;99.90;;;;;;5082061;28;20029;-60
2023/02/07 10:51:22;;;;;;;80.50;39.08;;;-0.90;99.90;;;;;;5075775;28;20614;-59
2023/02/07 10:54:09;;;;;;;79.07;36.70;;;-0.80;99.90;;;;;;5070437;28;20505;-60
2023/02/07 10:57:00;;;;;;;72.80;36.88;;;-0.90;99.90;;;;;;5070742;28;20102;-58
2023/02/07 10:59:47;;;;;;;73.15;36.47;;;-0.90;99.90;;;;;;5090325;28;20024;-60
2023/02/07 11:02:38;;;;;;;70.85;36.47;;;-0.90;99.90;;;;;;5082368;28;20107;-58
2023/02/07 11:05:24;;;;;;;76.10;37.95;;;-1.10;99.90;;;;;;5052619;28;20055;-59
2023/02/07 11:08:13;;;;;;;73.95;37.78;;;-1.10;99.90;;;;;;5074790;28;20035;-59
2023/02/07 11:11:38;;;;;;;79.00;38.50;;;-1.10;99.90;;;;;;5089083;28;20024;-57
2023/02/07 11:14:26;;;;;;;73.57;35.92;;;-1.10;99.90;;;;;;5083705;28;20420;-58
2023/02/07 11:17:20;;;;;;;73.40;36.90;;;-1.10;99.90;;;;;;5087189;28;20032;-59
2023/02/07 11:20:22;;;;;;;78.00;37.45;;;-1.10;99.90;;;;;;5069556;28;20075;-55
2023/02/07 11:23:14;;;;;;;72.00;37.83;;;-1.00;99.90;;;;;;5066927;28;20032;-58
2023/02/07 11:26:02;;;;;;;76.22;37.53;;;-0.80;99.90;;;;;;5088599;28;20027;-59
2023/02/07 11:29:06;;;;;;;78.90;38.05;;;-0.70;99.90;;;;;;5073266;28;20036;-57
2023/02/07 11:31:54;;;;;;;127.28;58.53;;;-0.60;99.90;;;;;;5069849;28;20382;-59
2023/02/07 11:34:52;;;;;;;75.55;38.90;;;-0.50;99.90;;;;;;5078929;28;20424;-57
2023/02/07 11:37:46;;;;;;;71.00;35.25;;;-0.40;99.90;;;;;;5085582;28;20063;-59
2023/02/07 11:40:46;;;;;;;70.03;35.22;;;-0.60;99.90;;;;;;5057578;28;20159;-59
2023/02/07 11:43:34;;;;;;;73.63;35.47;;;-0.60;99.90;;;;;;5073615;28;20029;-59
2023/02/07 11:46:22;;;;;;;73.28;36.25;;;-0.50;99.90;;;;;;5073131;28;20016;-60
2023/02/07 11:49:19;;;;;;;67.15;36.90;;;-0.30;99.90;;;;;;5093086;28;20107;-59
2023/02/07 11:52:06;;;;;;;73.60;36.88;;;-0.20;99.90;;;;;;5085093;28;20066;-60
2023/02/07 11:55:02;;;;;;;69.13;35.30;;;-0.10;99.90;;;;;;5072830;28;20021;-57
2023/02/07 11:57:48;;;;;;;64.15;35.60;;;-0.10;99.90;;;;;;5085378;28;20428;-58
2023/02/07 12:00:35;;;;;;;71.15;34.03;;;-0.10;99.90;;;;;;5092527;28;20051;-56
2023/02/07 12:03:24;;;;;;;60.50;30.83;;;-0.20;99.90;;;;;;5074814;28;20058;-58
2023/02/07 12:06:15;;;;;;;65.18;34.08;;;-0.30;99.90;;;;;;5089526;28;20730;-59
2023/02/07 12:09:04;;;;;;;61.88;33.70;;;-0.30;99.90;;;;;;5071132;28;20461;-61
2023/02/07 12:11:54;;;;;;;70.88;35.75;;;-0.30;99.90;;;;;;5082661;28;20032;-57
2023/02/07 12:14:45;;;;;;;71.07;35.45;;;-0.30;99.90;;;;;;5072913;28;20032;-58
2023/02/07 12:17:58;;;;;;;76.30;38.88;;;-0.30;99.90;;;;;;5072545;28;20037;-60
2023/02/07 12:20:44;;;;;;;75.50;38.63;;;-0.20;99.90;;;;;;5038369;28;20032;-57
2023/02/07 12:23:55;;;;;;;75.32;36.65;;;-0.30;99.90;;;;;;5091688;28;20024;-59
2023/02/07 12:26:46;;;;;;;73.63;37.70;;;-0.40;99.90;;;;;;5091203;28;20036;-59
2023/02/07 12:29:57;;;;;;;90.32;43.60;;;-0.60;99.90;;;;;;5092098;28;20028;-60
2023/02/07 12:32:53;;;;;;;116.80;55.08;;;-0.40;99.90;;;;;;5057079;28;20024;-58
2023/02/07 12:36:12;;;;;;;88.40;42.95;;;-0.20;99.90;;;;;;5081296;28;20028;-57
2023/02/07 12:39:27;;;;;;;76.55;38.13;;;-0.10;99.90;;;;;;5092867;28;20028;-58
2023/02/07 12:42:28;;;;;;;68.05;34.80;;;0.00;99.90;;;;;;5064850;28;20079;-58
2023/02/07 12:45:17;;;;;;;72.55;38.35;;;0.00;99.90;;;;;;5056987;28;20032;-57
2023/02/07 12:48:37;;;;;;;67.75;35.92;;;0.00;99.90;;;;;;5071166;28;20432;-56
2023/02/07 12:51:41;;;;;;;79.38;40.75;;;0.20;99.90;;;;;;5073123;28;20090;-60
2023/02/07 12:54:47;;;;;;;71.65;37.67;;;0.30;99.90;;;;;;5091236;28;20032;-58
2023/02/07 12:57:56;;;;;;;80.20;41.55;;;0.50;99.90;;;;;;5090207;28;20024;-59
2023/02/07 13:01:16;;;;;;;80.88;42.05;;;0.50;99.90;;;;;;5091515;28;20450;-58
2023/02/07 13:04:32;;;;;;;78.65;38.30;;;0.40;99.90;;;;;;5071158;28;20028;-58
2023/02/07 13:07:42;;;;;;;82.50;40.22;;;0.30;99.90;;;;;;5086928;28;20024;-59
2023/02/07 13:10:49;;;;;;;78.78;40.78;;;0.30;99.90;;;;;;5091052;28;20052;-57
2023/02/07 13:13:47;;;;;;;84.97;43.55;;;0.30;99.90;;;;;;5057552;28;20119;-59
2023/02/07 13:16:47;;;;;;;76.97;38.60;;;0.30;99.90;;;;;;5057339;28;20122;-56
2023/02/07 13:19:42;;;;;;;75.05;39.35;;;0.30;99.90;;;;;;5057442;28;20027;-59
2023/02/07 13:22:41;;;;;;;83.57;40.75;;;0.30;99.90;;;;;;5058396;28;20024;-59
2023/02/07 13:25:38;;;;;;;76.78;38.60;;;0.30;99.90;;;;;;5056096;28;20036;-57
2023/02/07 13:28:37;;;;;;;71.50;36.78;;;0.30;99.90;;;;;;5057380;28;20082;-58
2023/02/07 13:31:29;;;;;;;82.75;40.67;;;0.20;99.90;;;;;;5071854;28;20027;-55
2023/02/07 13:34:20;;;;;;;73.40;37.33;;;0.20;99.90;;;;;;5076822;28;20028;-58
2023/02/07 13:37:10;;;;;;;75.97;38.15;;;0.20;99.90;;;;;;5082701;28;20009;-56
2023/02/07 13:40:37;;;;;;;78.45;38.90;;;0.10;99.90;;;;;;5057105;28;20123;-56
2023/02/07 13:43:50;;;;;;;76.28;38.20;;;-0.10;99.90;;;;;;5073937;28;20094;-59
2023/02/07 13:46:58;;;;;;;84.88;39.67;;;-0.20;99.90;;;;;;5077963;28;20039;-57
2023/02/07 13:50:21;;;;;;;84.70;39.70;;;-0.20;99.90;;;;;;5080231;28;20031;-58
2023/02/07 13:53:27;;;;;;;83.13;38.80;;;-0.10;99.90;;;;;;5073962;28;20116;-62
2023/02/07 13:59:37;;;;;;;80.45;37.40;;;0.00;99.90;;;;;;5082276;28;20492;-57
2023/02/07 14:02:23;;;;;;;79.32;36.85;;;-0.10;99.90;;;;;;5094002;28;20028;-59
2023/02/07 14:05:19;;;;;;;82.68;39.92;;;0.10;99.90;;;;;;5079412;28;20039;-59
2023/02/07 14:08:17;;;;;;;75.53;38.83;;;0.20;99.90;;;;;;5067224;28;20024;-59
2023/02/07 14:11:35;;;;;;;77.05;38.30;;;0.00;99.90;;;;;;5093343;28;20027;-57
2023/02/07 14:14:51;;;;;;;76.30;37.08;;;0.00;99.90;;;;;;5059628;28;20028;-59
2023/02/07 14:17:42;;;;;;;73.63;38.33;;;-0.10;99.90;;;;;;5088056;28;20036;-60
2023/02/07 14:20:34;;;;;;;77.03;37.90;;;-0.20;99.90;;;;;;5075959;28;20112;-57
2023/02/07 14:23:20;;;;;;;88.05;43.10;;;-0.30;99.90;;;;;;5091401;28;20090;-60
2023/02/07 14:26:38;;;;;;;85.38;41.03;;;-0.20;99.90;;;;;;5093133;28;20031;-58
2023/02/07 14:29:24;;;;;;;81.03;41.55;;;-0.20;99.90;;;;;;5092870;28;20020;-60
2023/02/07 14:32:15;;;;;;;81.45;41.22;;;-0.10;99.90;;;;;;5073207;28;20050;-59
2023/02/07 14:35:21;;;;;;;94.53;44.80;;;-0.20;99.90;;;;;;5074574;28;20115;-60